.
WxDataArchive / Data Records for 2008-05-08
2008-05-07 May 2008 2008-05-09

Data Records for Thursday, 08 May 2008

Time	Temp	Chill	HIndex	Humid	Dewpt	 Wind 	HiWind	WindDir	Rain 	Barom 
-----	----	-----	------	-----	-----	------	------	-------	-----	----- 
00:00	59.0	59.0	59.0	97	58.1	0	0	---	0.00	29.653 
00:05	59.0	59.0	59.0	97	58.1	0	0	---	0.00	29.655 
00:10	59.0	59.0	59.0	97	58.1	0	0	---	0.00	29.656 
00:15	58.9	58.9	58.9	97	58.0	0	0	---	0.00	29.658 
00:20	59.0	59.0	59.0	97	58.1	0	0	---	0.00	29.662 
00:25	59.0	59.0	59.0	97	58.1	0	0	---	0.00	29.665 
00:30	58.9	58.9	58.9	97	58.0	0	0	---	0.00	29.667 
00:35	58.9	58.9	58.9	97	58.0	0	0	---	0.00	29.667 
00:40	58.9	58.9	58.9	97	58.0	0	0	---	0.00	29.668 
00:45	58.9	58.9	58.9	97	58.0	0	0	---	0.00	29.668 
00:50	58.9	58.9	58.9	97	58.0	0	0	---	0.00	29.668 
00:55	58.9	58.9	58.9	97	58.0	0	0	---	0.00	29.670 
01:00	58.7	58.7	58.7	97	57.8	0	0	---	0.00	29.669 
01:05	58.7	58.7	58.7	97	57.8	0	0	---	0.00	29.674 
01:10	58.7	58.7	58.7	97	57.8	0	0	---	0.00	29.675 
01:15	58.9	58.9	58.9	97	58.0	0	0	---	0.00	29.680 
01:20	58.9	58.9	58.9	97	58.0	0	0	---	0.00	29.681 
01:25	58.9	58.9	58.9	97	58.0	0	0	---	0.00	29.683 
01:30	58.9	58.9	58.9	97	58.0	0	0	---	0.01	29.680 
01:35	58.9	58.9	58.9	97	58.0	0	1	292	0.01	29.679 
01:40	59.0	59.0	59.0	97	58.1	0	1	292	0.00	29.680 
01:45	59.0	59.0	59.0	97	58.1	0	1	292	0.00	29.682 
01:50	59.0	59.0	59.0	97	58.1	0	1	292	0.00	29.681 
01:55	58.9	58.9	58.9	97	58.0	0	1	292	0.00	29.679 
02:00	58.9	58.9	58.9	97	58.0	0	1	292	0.00	29.681 
02:05	58.9	58.9	58.9	97	58.0	0	1	292	0.00	29.681 
02:10	58.7	58.7	58.7	97	57.8	0	1	292	0.00	29.683 
02:15	58.6	58.6	58.6	97	57.7	0	1	292	0.00	29.684 
02:20	58.6	58.6	58.6	97	57.7	0	1	292	0.00	29.685 
02:25	58.4	58.4	58.4	97	57.5	0	1	292	0.00	29.687 
02:30	58.4	58.4	58.4	97	57.5	0	0	---	0.00	29.688 
02:35	58.1	58.1	58.1	97	57.3	0	2	292	0.00	29.690 
02:40	57.6	57.6	57.6	97	56.8	0	2	292	0.00	29.691 
02:45	57.0	57.0	57.0	97	56.2	0	2	292	0.00	29.699 
02:50	56.7	56.7	56.7	97	55.9	0	2	315	0.00	29.698 
02:55	56.6	56.6	56.6	97	55.8	0	2	315	0.00	29.701 
03:00	56.3	56.3	56.3	96	55.2	0	1	315	0.00	29.701 
03:05	56.3	56.3	56.3	96	55.2	0	2	315	0.00	29.703 
03:10	56.0	56.0	56.0	96	54.9	0	2	315	0.00	29.705 
03:15	55.9	55.9	55.9	96	54.8	0	2	315	0.00	29.705 
03:20	55.6	55.6	55.6	96	54.5	0	2	315	0.00	29.706 
03:25	55.1	55.1	55.1	96	54.0	1	2	292	0.00	29.709 
03:30	54.7	54.7	54.7	96	53.6	1	3	22	0.00	29.712 
03:35	54.5	54.5	54.5	96	53.4	0	5	292	0.00	29.717 
03:40	54.4	54.4	54.4	95	53.0	0	3	292	0.00	29.720 
03:45	54.1	54.1	54.1	95	52.7	0	2	315	0.00	29.721 
03:50	53.8	53.8	53.8	95	52.4	0	2	0	0.00	29.722 
03:55	53.5	53.5	53.5	94	51.8	0	1	0	0.00	29.726 
04:00	53.3	53.3	53.3	94	51.6	0	2	338	0.00	29.731 
04:05	53.2	53.2	53.2	94	51.5	0	1	338	0.00	29.731 
04:10	52.9	52.9	52.9	93	50.9	0	2	338	0.00	29.734 
04:15	52.6	52.6	52.6	93	50.6	1	5	338	0.00	29.737 
04:20	52.5	52.5	52.5	93	50.5	0	3	112	0.00	29.736 
04:25	52.3	52.3	52.3	93	50.3	0	3	315	0.00	29.736 
04:30	52.2	52.2	52.2	92	49.9	0	5	135	0.00	29.734 
04:35	52.2	52.2	52.2	92	49.9	0	2	135	0.00	29.738 
04:40	52.0	52.0	52.0	93	50.0	0	1	135	0.00	29.739 
04:45	51.9	51.9	51.9	92	49.6	0	2	45	0.00	29.736 
04:50	51.7	51.7	51.7	92	49.5	0	3	90	0.00	29.735 
04:55	51.6	51.6	51.6	92	49.4	0	2	90	0.00	29.737 
05:00	51.3	51.3	51.3	91	48.8	0	1	112	0.00	29.740 
05:05	51.0	51.0	51.0	88	47.6	1	3	112	0.00	29.742 
05:10	50.7	50.7	50.7	83	45.7	1	5	202	0.00	29.743 
05:15	50.5	50.5	50.5	81	44.9	0	3	90	0.00	29.750 
05:20	50.5	50.5	50.5	79	44.2	1	4	112	0.00	29.757 
05:25	50.4	50.4	50.4	80	44.5	0	1	112	0.00	29.757 
05:30	50.4	50.4	50.4	80	44.5	0	1	112	0.00	29.758 
05:35	50.2	50.2	50.2	80	44.3	0	3	112	0.00	29.756 
05:40	50.2	50.2	50.2	79	43.9	1	4	90	0.00	29.757 
05:45	50.2	50.2	50.2	80	44.3	0	0	---	0.00	29.758 
05:50	50.1	50.1	50.1	79	43.8	0	2	45	0.00	29.759 
05:55	50.2	50.2	50.2	81	44.6	0	2	112	0.00	29.761 
06:00	50.1	50.1	50.1	81	44.5	0	1	112	0.00	29.763 
06:05	50.1	50.1	50.1	80	44.2	0	3	248	0.00	29.768 
06:10	50.1	50.1	50.1	81	44.5	0	0	---	0.00	29.769 
06:15	50.1	50.1	50.1	80	44.2	0	2	248	0.00	29.769 
06:20	50.1	50.1	50.1	81	44.5	0	2	338	0.00	29.768 
06:25	50.1	50.1	50.1	81	44.5	0	2	0	0.00	29.770 
06:30	50.1	50.1	50.1	81	44.5	0	2	0	0.00	29.771 
06:35	50.1	50.1	50.1	81	44.5	0	2	0	0.00	29.773 
06:40	49.9	49.9	49.9	80	44.0	0	2	0	0.00	29.774 
06:45	49.9	49.9	49.9	80	44.0	0	2	0	0.00	29.772 
06:50	49.9	49.9	49.9	81	44.3	0	1	0	0.00	29.771 
06:55	49.9	49.9	49.9	81	44.3	1	3	45	0.00	29.772 
07:00	49.9	49.9	49.9	81	44.3	0	3	45	0.00	29.771 
07:05	49.6	49.6	49.6	81	44.0	1	3	135	0.00	29.771 
07:10	49.5	49.5	49.5	81	43.9	1	3	135	0.00	29.770 
07:15	49.4	49.4	49.4	82	44.1	0	4	135	0.00	29.766 
07:20	49.4	49.4	49.4	83	44.5	0	2	135	0.00	29.765 
07:25	49.4	49.4	49.4	83	44.5	1	3	90	0.00	29.763 
07:30	49.4	49.4	49.4	83	44.5	0	5	112	0.00	29.763 
07:35	49.2	49.2	49.2	84	44.6	1	4	112	0.00	29.762 
07:40	49.1	49.1	49.1	85	44.8	0	3	112	0.02	29.762 
07:45	48.5	48.5	48.5	86	44.5	0	1	112	0.01	29.764 
07:50	48.0	48.0	48.0	87	44.3	0	3	112	0.00	29.770 
07:55	47.9	47.9	47.9	88	44.5	1	4	112	0.01	29.772 
08:00	47.7	47.7	47.7	88	44.3	1	4	158	0.00	29.778 
08:05	47.7	47.7	47.7	88	44.3	0	1	90	0.00	29.777 
08:10	47.6	47.6	47.6	88	44.2	0	4	68	0.00	29.778 
08:15	47.6	47.6	47.6	88	44.2	0	3	68	0.00	29.777 
08:20	47.4	47.4	47.4	88	44.0	0	3	68	0.00	29.780 
08:25	47.1	47.1	47.1	86	43.1	1	3	112	0.00	29.779 
08:30	47.1	47.1	47.1	86	43.1	1	3	90	0.00	29.778 
08:35	47.0	47.0	47.0	85	42.7	1	5	112	0.00	29.775 
08:40	47.0	47.0	47.0	85	42.7	1	5	112	0.00	29.772 
08:45	47.0	47.0	47.0	84	42.4	1	5	112	0.00	29.771 
08:50	47.1	47.1	47.1	85	42.8	1	4	45	0.00	29.766 
08:55	47.4	47.4	47.4	85	43.1	1	4	68	0.00	29.764 
09:00	47.7	47.7	47.7	86	43.7	1	3	112	0.00	29.763 
09:05	47.9	47.9	47.9	85	43.6	1	4	112	0.00	29.764 
09:10	48.3	48.3	48.3	86	44.3	0	2	112	0.00	29.764 
09:15	48.5	48.5	48.5	83	43.6	3	7	90	0.00	29.762 
09:20	48.6	48.6	48.6	82	43.4	2	6	112	0.00	29.763 
09:25	48.6	48.6	48.6	81	43.0	1	3	90	0.00	29.766 
09:30	48.6	48.6	48.6	81	43.0	2	4	112	0.00	29.767 
09:35	48.6	48.6	48.6	81	43.0	2	7	90	0.00	29.769 
09:40	48.6	48.6	48.6	82	43.4	1	3	112	0.00	29.768 
09:45	48.6	48.6	48.6	81	43.0	1	6	90	0.00	29.767 
09:50	48.5	48.5	48.5	80	42.6	3	7	112	0.00	29.767 
09:55	48.3	48.3	48.3	79	42.1	3	7	90	0.00	29.767 
10:00	48.3	48.3	48.3	79	42.1	3	7	112	0.00	29.767 
10:05	48.5	48.5	48.5	78	42.0	2	5	112	0.00	29.773 
10:10	48.6	48.6	48.6	80	42.7	2	6	112	0.00	29.771 
10:15	48.8	48.8	48.8	80	42.9	2	6	90	0.00	29.767 
10:20	48.8	48.8	48.8	79	42.6	2	7	112	0.00	29.766 
10:25	48.9	48.9	48.9	79	42.7	3	6	90	0.00	29.773 
10:30	49.1	49.1	49.1	80	43.2	1	6	90	0.00	29.774 
10:35	49.4	49.4	49.4	79	43.2	2	5	112	0.00	29.767 
10:40	49.4	49.4	49.4	79	43.2	2	4	22	0.00	29.765 
10:45	49.6	49.6	49.6	79	43.4	1	4	112	0.00	29.762 
10:50	49.9	49.9	49.9	78	43.3	2	7	90	0.00	29.764 
10:55	49.9	49.9	49.9	76	42.6	3	6	90	0.00	29.765 
11:00	49.8	49.8	49.8	75	42.2	3	12	90	0.00	29.765 
11:05	49.8	49.8	49.8	77	42.9	3	9	112	0.00	29.765 
11:10	49.8	49.8	49.8	78	43.2	3	9	90	0.00	29.769 
11:15	49.9	49.9	49.9	78	43.3	2	7	112	0.00	29.771 
11:20	49.9	49.9	49.9	78	43.3	3	10	90	0.00	29.770 
11:25	49.8	49.8	49.8	79	43.6	3	8	112	0.00	29.770 
11:30	49.8	49.8	49.8	79	43.6	3	9	112	0.00	29.767 
11:35	49.8	49.8	49.8	79	43.6	2	8	112	0.00	29.766 
11:40	49.8	48.6	49.8	79	43.6	4	11	112	0.00	29.764 
11:45	49.8	48.6	49.8	78	43.2	4	9	112	0.00	29.764 
11:50	49.8	49.8	49.8	79	43.6	3	8	112	0.00	29.765 
11:55	49.8	48.6	49.8	79	43.6	4	11	112	0.00	29.763 
12:00	49.8	48.6	49.8	78	43.2	4	10	112	0.00	29.763 
12:05	50.1	50.1	50.1	78	43.5	3	10	112	0.00	29.762 
12:10	50.1	50.1	50.1	78	43.5	3	7	112	0.00	29.763 
12:15	50.4	50.4	50.4	80	44.5	1	5	112	0.00	29.764 
12:20	50.5	50.5	50.5	79	44.2	2	7	112	0.00	29.763 
12:25	50.4	50.4	50.4	79	44.1	3	8	112	0.00	29.764 
12:30	50.1	50.1	50.1	79	43.8	4	10	90	0.00	29.763 
12:35	50.1	50.1	50.1	80	44.2	3	5	112	0.00	29.763 
12:40	50.4	50.4	50.4	80	44.5	2	9	90	0.00	29.762 
12:45	50.4	50.4	50.4	80	44.5	2	9	112	0.00	29.760 
12:50	50.4	50.4	50.4	79	44.1	3	14	112	0.00	29.759 
12:55	50.4	50.4	50.4	80	44.5	2	5	112	0.00	29.754 
13:00	50.5	50.5	50.5	80	44.6	2	7	90	0.00	29.748 
13:05	50.8	50.8	50.8	79	44.5	2	9	90	0.00	29.745 
13:10	51.0	51.0	51.0	79	44.7	2	7	90	0.00	29.744 
13:15	51.1	51.1	51.1	79	44.8	3	9	135	0.00	29.744 
13:20	51.1	51.1	51.1	80	45.1	3	8	45	0.00	29.743 
13:25	51.4	51.4	51.4	80	45.4	2	6	112	0.00	29.739 
13:30	51.6	51.6	51.6	81	46.0	3	10	90	0.00	29.740 
13:35	51.6	51.6	51.6	80	45.6	3	13	112	0.00	29.740 
13:40	51.6	51.6	51.6	81	46.0	3	10	90	0.00	29.737 
13:45	51.7	51.7	51.7	81	46.1	2	9	90	0.00	29.732 
13:50	51.9	51.9	51.9	80	45.9	3	7	112	0.00	29.731 
13:55	51.7	51.7	51.7	80	45.7	3	9	112	0.00	29.729 
14:00	51.9	51.9	51.9	81	46.3	2	5	90	0.00	29.728 
14:05	51.7	51.7	51.7	80	45.7	2	6	90	0.00	29.734 
14:10	51.6	51.6	51.6	80	45.6	3	9	90	0.00	29.741 
14:15	51.6	51.6	51.6	81	46.0	3	7	112	0.00	29.737 
14:20	51.6	51.6	51.6	82	46.3	5	11	90	0.00	29.736 
14:25	51.6	51.6	51.6	84	46.9	3	10	112	0.00	29.733 
14:30	51.7	51.7	51.7	85	47.3	2	7	112	0.00	29.730 
14:35	51.9	51.9	51.9	86	47.8	2	5	112	0.00	29.730 
14:40	51.9	51.9	51.9	84	47.2	3	9	112	0.00	29.729 
14:45	51.9	51.9	51.9	85	47.5	2	6	90	0.00	29.726 
14:50	51.9	51.9	51.9	85	47.5	3	7	112	0.00	29.725 
14:55	52.0	52.0	52.0	84	47.3	2	10	112	0.00	29.724 
15:00	52.0	52.0	52.0	83	47.0	3	10	90	0.00	29.726 
15:05	52.0	52.0	52.0	81	46.4	3	14	90	0.00	29.724 
15:10	52.0	52.0	52.0	81	46.4	3	7	90	0.00	29.725 
15:15	52.0	52.0	52.0	81	46.4	3	10	90	0.00	29.728 
15:20	52.0	52.0	52.0	81	46.4	3	7	112	0.00	29.728 
15:25	51.9	51.9	51.9	82	46.6	2	9	112	0.00	29.729 
15:30	51.7	51.7	51.7	82	46.4	4	6	112	0.01	29.728 
15:35	51.7	51.7	51.7	83	46.7	3	7	112	0.00	29.730 
15:40	51.6	51.6	51.6	82	46.3	3	13	90	0.00	29.729 
15:45	51.6	51.6	51.6	83	46.6	2	6	45	0.00	29.727 
15:50	51.4	51.4	51.4	84	46.7	3	10	112	0.00	29.727 
15:55	51.3	51.3	51.3	85	46.9	3	11	112	0.00	29.724 
16:00	51.3	51.3	51.3	85	46.9	2	5	90	0.00	29.721 
16:05	51.1	51.1	51.1	85	46.7	3	7	112	0.00	29.724 
16:10	51.0	51.0	51.0	85	46.7	3	9	112	0.00	29.723 
16:15	51.0	51.0	51.0	86	47.0	3	7	112	0.00	29.723 
16:20	51.0	51.0	51.0	87	47.3	3	6	112	0.00	29.723 
16:25	50.8	50.8	50.8	87	47.1	4	7	90	0.00	29.721 
16:30	50.8	50.8	50.8	87	47.1	2	10	90	0.00	29.721 
16:35	50.8	50.8	50.8	87	47.1	2	5	112	0.00	29.721 
16:40	51.0	51.0	51.0	88	47.6	1	5	90	0.00	29.722 
16:45	50.7	50.7	50.7	86	46.7	4	10	112	0.00	29.722 
16:50	50.5	50.5	50.5	86	46.5	4	7	90	0.00	29.722 
16:55	50.5	50.5	50.5	88	47.1	2	6	90	0.00	29.721 
17:00	50.5	50.5	50.5	87	46.8	2	9	112	0.00	29.720 
17:05	50.5	50.5	50.5	87	46.8	3	9	90	0.00	29.722 
17:10	50.5	50.5	50.5	87	46.8	2	6	90	0.00	29.721 
17:15	50.4	50.4	50.4	86	46.4	3	10	112	0.00	29.721 
17:20	50.2	50.2	50.2	86	46.2	3	9	90	0.00	29.719 
17:25	50.2	50.2	50.2	87	46.5	2	7	90	0.00	29.718 
17:30	50.2	50.2	50.2	87	46.5	2	9	90	0.00	29.720 
17:35	50.2	50.2	50.2	87	46.5	2	5	112	0.00	29.721 
17:40	50.1	50.1	50.1	86	46.1	2	11	112	0.00	29.719 
17:45	50.1	50.1	50.1	86	46.1	3	10	90	0.00	29.719 
17:50	50.1	50.1	50.1	86	46.1	2	11	90	0.00	29.718 
17:55	50.1	50.1	50.1	87	46.4	2	8	112	0.00	29.718 
18:00	50.1	50.1	50.1	87	46.4	1	5	68	0.00	29.718 
18:05	50.1	50.1	50.1	88	46.7	2	9	112	0.00	29.717 
18:10	50.1	50.1	50.1	88	46.7	2	5	112	0.00	29.714 
18:15	50.1	50.1	50.1	88	46.7	3	12	90	0.01	29.717 
18:20	50.1	50.1	50.1	87	46.4	2	7	90	0.00	29.714 
18:25	49.9	49.9	49.9	86	45.9	3	10	90	0.00	29.714 
18:30	49.9	49.9	49.9	87	46.2	3	11	112	0.00	29.716 
18:35	49.9	48.8	49.9	87	46.2	4	9	90	0.00	29.717 
18:40	49.8	49.8	49.8	87	46.1	3	7	90	0.00	29.717 
18:45	49.8	49.8	49.8	88	46.4	2	6	112	0.00	29.718 
18:50	49.8	49.8	49.8	87	46.1	2	6	90	0.00	29.720 
18:55	49.8	49.8	49.8	87	46.1	2	5	112	0.00	29.721 
19:00	49.8	49.8	49.8	87	46.1	2	6	90	0.00	29.721 
19:05	49.8	49.8	49.8	87	46.1	2	6	90	0.00	29.723 
19:10	49.6	49.6	49.6	86	45.6	3	7	90	0.00	29.724 
19:15	49.6	49.6	49.6	86	45.6	3	10	112	0.00	29.724 
19:20	49.6	49.6	49.6	86	45.6	3	10	90	0.00	29.725 
19:25	49.6	49.6	49.6	87	45.9	3	6	90	0.00	29.724 
19:30	49.5	49.5	49.5	87	45.8	1	6	112	0.00	29.725 
19:35	49.5	49.5	49.5	86	45.5	2	6	90	0.00	29.726 
19:40	49.5	49.5	49.5	87	45.8	2	5	112	0.00	29.726 
19:45	49.4	49.4	49.4	86	45.4	3	7	90	0.00	29.726 
19:50	49.4	49.4	49.4	86	45.4	3	10	90	0.00	29.725 
19:55	49.4	49.4	49.4	85	45.1	3	10	90	0.00	29.726 
20:00	49.4	49.4	49.4	85	45.1	3	7	112	0.00	29.727 
20:05	49.4	49.4	49.4	85	45.1	2	5	112	0.00	29.728 
20:10	49.2	49.2	49.2	85	44.9	2	6	112	0.00	29.728 
20:15	49.2	49.2	49.2	85	44.9	1	5	112	0.00	29.726 
20:20	49.2	49.2	49.2	85	44.9	2	5	90	0.00	29.726 
20:25	49.2	49.2	49.2	85	44.9	2	6	112	0.00	29.725 
20:30	49.2	49.2	49.2	85	44.9	3	7	112	0.00	29.724 
20:35	49.2	49.2	49.2	84	44.6	2	6	112	0.00	29.724 
20:40	49.2	49.2	49.2	85	44.9	2	5	112	0.00	29.725 
20:45	49.2	49.2	49.2	84	44.6	2	6	90	0.00	29.727 
20:50	49.2	49.2	49.2	84	44.6	2	10	90	0.00	29.727 
20:55	49.2	49.2	49.2	84	44.6	3	7	112	0.00	29.728 
21:00	49.2	49.2	49.2	83	44.3	2	7	90	0.00	29.728 
21:05	49.4	49.4	49.4	83	44.5	2	9	112	0.00	29.727 
21:10	49.4	49.4	49.4	83	44.5	2	5	112	0.00	29.725 
21:15	49.4	49.4	49.4	83	44.5	1	2	112	0.00	29.724 
21:20	49.4	49.4	49.4	83	44.5	2	6	112	0.00	29.724 
21:25	49.4	49.4	49.4	82	44.1	1	5	112	0.00	29.724 
21:30	49.4	49.4	49.4	82	44.1	1	4	112	0.00	29.724 
21:35	49.4	49.4	49.4	82	44.1	1	2	68	0.00	29.724 
21:40	49.5	49.5	49.5	82	44.2	1	2	68	0.00	29.722 
21:45	49.5	49.5	49.5	82	44.2	1	4	68	0.00	29.722 
21:50	49.5	49.5	49.5	81	43.9	1	5	90	0.00	29.722 
21:55	49.5	49.5	49.5	81	43.9	1	5	112	0.00	29.721 
22:00	49.6	49.6	49.6	81	44.0	1	4	45	0.00	29.719 
22:05	49.6	49.6	49.6	81	44.0	1	5	112	0.00	29.716 
22:10	49.6	49.6	49.6	80	43.7	1	4	68	0.00	29.714 
22:15	49.8	49.8	49.8	80	43.9	2	7	112	0.00	29.706 
22:20	49.8	49.8	49.8	80	43.9	1	4	112	0.00	29.706 
22:25	49.8	49.8	49.8	80	43.9	1	4	112	0.00	29.705 
22:30	49.8	49.8	49.8	80	43.9	1	3	112	0.00	29.705 
22:35	49.9	49.9	49.9	81	44.3	1	3	112	0.00	29.705 
22:40	49.9	49.9	49.9	81	44.3	1	3	112	0.00	29.706 
22:45	49.9	49.9	49.9	81	44.3	1	4	112	0.00	29.706 
22:50	49.9	49.9	49.9	81	44.3	1	4	112	0.00	29.706 
22:55	49.9	49.9	49.9	80	44.0	1	5	90	0.00	29.706 
23:00	50.1	50.1	50.1	80	44.2	1	5	90	0.00	29.706 
23:05	50.1	50.1	50.1	80	44.2	1	4	22	0.00	29.707 
23:10	50.1	50.1	50.1	81	44.5	1	4	90	0.00	29.707 
23:15	50.1	50.1	50.1	80	44.2	1	4	90	0.00	29.706 
23:20	50.1	50.1	50.1	81	44.5	1	4	45	0.00	29.706 
23:25	50.1	50.1	50.1	81	44.5	0	3	135	0.00	29.707 
23:30	50.1	50.1	50.1	81	44.5	1	3	135	0.00	29.706 
23:35	50.1	50.1	50.1	81	44.5	0	3	45	0.00	29.706 
23:40	50.1	50.1	50.1	81	44.5	0	3	45	0.00	29.706 
23:45	50.1	50.1	50.1	81	44.5	1	3	90	0.00	29.706 
23:50	50.1	50.1	50.1	81	44.5	1	5	90	0.00	29.707 
23:55	50.1	50.1	50.1	81	44.5	0	3	90	0.00	29.707 

CoCoRaHS
IN-AL-39
A2 Web Hosting
Creative Commons License
GoDaddy
Look for:

loaded 2017-10-19 12:32:07 • last modified 2010-11-18 10:43:29
Privacy PolicyDisclaimer
• wx.awcolley.com is powered by PmWiki v.2002016 •
• all content (unless otherwise noted) © 2017 A W Colley